Terminal Aerodrome Forecast
Issued by NWS Caribou, ME

Home | Current Version | Previous Version | Text Only | Print | Product List | Glossary On
Versions: 1 2 3 4 5 6 7 8 9 10 11 12 13 14 15 16 17 18 19 20
804
FTUS41 KCAR 231721
TAFCAR
TAF
KCAR 231721Z 2318/2418 36003KT P6SM SCT250
     FM241200 06007KT P6SM OVC150
     FM241500 06009KT P6SM OVC100=

USA.gov is the U.S. government's official web portal to all federal, state and local government web resources and services.